createdAt,value
2024-03-19T00:00:55.705Z,8.20
2024-03-19T00:03:23.170Z,5.70
2024-03-19T00:05:50.897Z,6.00
2024-03-19T00:08:18.338Z,6.70
2024-03-19T00:10:45.692Z,6.90
2024-03-19T00:13:13.064Z,6.00
2024-03-19T00:15:41.869Z,5.30
2024-03-19T00:18:09.272Z,7.30
2024-03-19T00:20:36.721Z,7.00
2024-03-19T00:23:04.286Z,4.80
2024-03-19T00:25:31.668Z,6.70
2024-03-19T00:27:59.044Z,5.70
2024-03-19T00:30:26.436Z,6.10
2024-03-19T00:32:53.810Z,5.90
2024-03-19T00:35:21.266Z,4.20
2024-03-19T00:37:50.230Z,5.00
2024-03-19T00:40:17.680Z,4.80
2024-03-19T00:42:45.071Z,4.70
2024-03-19T00:45:12.437Z,4.30
2024-03-19T00:47:40.145Z,7.00
2024-03-19T00:50:07.886Z,6.00
2024-03-19T00:52:35.301Z,4.80
2024-03-19T00:55:05.286Z,4.40
2024-03-19T00:57:33.379Z,3.70
2024-03-19T01:00:00.744Z,5.00
2024-03-19T01:02:28.121Z,6.70
2024-03-19T01:04:56.343Z,4.60
2024-03-19T01:07:23.997Z,6.40
2024-03-19T01:09:51.478Z,5.80
2024-03-19T01:12:18.912Z,6.10
2024-03-19T01:14:46.258Z,7.00
2024-03-19T01:17:14.508Z,6.00
2024-03-19T01:19:41.873Z,6.20
2024-03-19T01:22:10.944Z,7.10
2024-03-19T01:24:38.873Z,7.20
2024-03-19T01:27:06.414Z,8.00
2024-03-19T01:29:34.146Z,5.20
2024-03-19T01:32:01.703Z,5.10
2024-03-19T01:34:29.065Z,5.80
2024-03-19T01:36:56.442Z,5.10
2024-03-19T01:39:23.924Z,6.00
2024-03-19T01:41:54.970Z,4.20
2024-03-19T01:44:22.606Z,4.40
2024-03-19T01:46:50.416Z,4.80
2024-03-19T01:49:19.356Z,4.40
2024-03-19T01:51:49.390Z,6.30
2024-03-19T01:54:16.751Z,5.40
2024-03-19T01:56:44.129Z,3.90
2024-03-19T01:59:11.499Z,5.20
2024-03-19T02:01:39.166Z,5.20
2024-03-19T02:04:06.521Z,7.80
2024-03-19T02:06:33.920Z,5.00
2024-03-19T02:09:04.163Z,4.40
2024-03-19T02:11:32.144Z,5.60
2024-03-19T02:14:03.430Z,4.80
2024-03-19T02:16:31.859Z,4.40
2024-03-19T02:19:00.279Z,7.00
2024-03-19T02:21:27.676Z,5.60
2024-03-19T02:23:59.098Z,5.80
2024-03-19T02:26:31.040Z,4.70
2024-03-19T02:28:58.868Z,4.20
2024-03-19T02:31:28.438Z,5.70
2024-03-19T02:33:56.411Z,6.80
2024-03-19T02:36:24.342Z,4.00
2024-03-19T02:38:52.514Z,7.30
2024-03-19T02:41:20.148Z,5.00
2024-03-19T02:43:47.646Z,5.10
2024-03-19T02:46:15.126Z,8.00
2024-03-19T02:48:42.526Z,5.40
2024-03-19T02:51:09.924Z,5.90
2024-03-19T02:53:37.304Z,5.90
2024-03-19T02:56:05.075Z,5.40
2024-03-19T02:58:32.758Z,4.80
2024-03-19T03:01:00.165Z,4.80
2024-03-19T03:03:27.575Z,6.90
2024-03-19T03:05:55.021Z,6.20
2024-03-19T03:08:22.380Z,6.40
2024-03-19T03:10:49.829Z,6.50
2024-03-19T03:13:17.193Z,6.10
2024-03-19T03:15:44.771Z,8.10
2024-03-19T03:18:12.164Z,5.70
2024-03-19T03:20:39.553Z,5.60
2024-03-19T03:23:07.025Z,7.30
2024-03-19T03:25:34.538Z,7.30
2024-03-19T03:28:02.306Z,4.50
2024-03-19T03:30:29.932Z,5.80
2024-03-19T03:32:57.656Z,6.70
2024-03-19T03:35:25.198Z,5.80
2024-03-19T03:37:52.549Z,6.90
2024-03-19T03:40:19.955Z,8.10
2024-03-19T03:42:56.555Z,6.10
2024-03-19T03:45:27.888Z,6.50
2024-03-19T03:47:55.678Z,6.90
2024-03-19T03:50:23.100Z,6.50
2024-03-19T03:52:50.545Z,7.40
2024-03-19T03:55:17.916Z,7.70
2024-03-19T03:57:46.812Z,7.90
2024-03-19T04:00:15.016Z,8.60
2024-03-19T04:02:43.697Z,6.50
2024-03-19T04:05:11.337Z,8.60
2024-03-19T04:07:42.843Z,7.30
2024-03-19T04:10:11.269Z,7.00
2024-03-19T04:12:38.897Z,7.00
2024-03-19T04:15:10.643Z,10.10
2024-03-19T04:17:39.070Z,6.90
2024-03-19T04:20:07.002Z,8.20
2024-03-19T04:22:35.907Z,8.60
2024-03-19T04:25:07.910Z,7.40
2024-03-19T04:27:35.846Z,7.20
2024-03-19T04:30:04.113Z,5.60
2024-03-19T04:32:32.133Z,6.50
2024-03-19T04:34:59.559Z,8.10
2024-03-19T04:37:28.460Z,7.60
2024-03-19T04:39:56.545Z,6.50
2024-03-19T04:42:24.394Z,8.80
2024-03-19T04:44:51.951Z,7.30
2024-03-19T04:47:20.395Z,7.00
2024-03-19T04:49:47.813Z,6.90
2024-03-19T04:52:15.306Z,10.40
2024-03-19T04:54:42.666Z,8.50
2024-03-19T04:57:10.195Z,7.10
2024-03-19T04:59:37.613Z,7.60
2024-03-19T05:02:06.257Z,6.00
2024-03-19T05:04:33.890Z,6.20
2024-03-19T05:07:01.594Z,7.10
2024-03-19T05:09:29.114Z,5.50
2024-03-19T05:11:56.564Z,7.10
2024-03-19T05:14:23.920Z,6.10
2024-03-19T05:16:51.274Z,5.60
2024-03-19T05:19:18.676Z,7.50
2024-03-19T05:21:49.093Z,6.20
2024-03-19T05:24:16.910Z,5.70
2024-03-19T05:26:44.280Z,5.90
2024-03-19T05:29:11.639Z,10.10
2024-03-19T05:31:39.068Z,5.60
2024-03-19T05:34:06.468Z,5.90
2024-03-19T05:36:33.879Z,5.90
2024-03-19T05:39:01.293Z,6.00
2024-03-19T05:41:28.690Z,6.60
2024-03-19T05:43:57.870Z,7.70
2024-03-19T05:46:25.776Z,6.70
2024-03-19T05:48:53.151Z,5.90
2024-03-19T05:51:20.506Z,6.80
2024-03-19T05:53:47.949Z,7.40
2024-03-19T05:56:15.464Z,7.70
2024-03-19T05:58:42.838Z,6.50
2024-03-19T06:01:10.210Z,6.30
2024-03-19T06:03:38.517Z,5.70
2024-03-19T06:06:11.889Z,5.70
2024-03-19T06:08:40.277Z,9.60
2024-03-19T06:11:10.989Z,6.10
2024-03-19T06:13:38.432Z,6.10
2024-03-19T06:16:06.372Z,6.30
2024-03-19T06:18:34.428Z,7.60
2024-03-19T06:21:01.832Z,6.50
2024-03-19T06:23:29.196Z,6.10
2024-03-19T06:25:56.698Z,6.40
2024-03-19T06:28:24.758Z,6.50
2024-03-19T06:30:55.289Z,7.40
2024-03-19T06:33:23.108Z,5.70
2024-03-19T06:35:53.244Z,5.60
2024-03-19T06:38:20.632Z,5.70
2024-03-19T06:40:48.392Z,5.90
2024-03-19T06:43:16.161Z,6.90
2024-03-19T06:45:43.994Z,6.40
2024-03-19T06:48:11.438Z,5.20
2024-03-19T06:50:38.888Z,6.70
2024-03-19T06:53:06.632Z,5.90
2024-03-19T06:55:34.114Z,5.40
2024-03-19T06:58:01.524Z,6.80
2024-03-19T07:00:29.032Z,7.30
2024-03-19T07:02:56.470Z,6.00
2024-03-19T07:05:23.913Z,5.40
2024-03-19T07:07:55.530Z,6.20
2024-03-19T07:12:53.104Z,7.10
2024-03-19T07:15:20.682Z,7.20
2024-03-19T07:17:51.579Z,6.80
2024-03-19T07:20:21.845Z,8.00
2024-03-19T07:22:50.940Z,6.20
2024-03-19T07:25:18.496Z,7.10
2024-03-19T07:27:46.078Z,5.60
2024-03-19T07:30:14.126Z,6.70
2024-03-19T07:32:42.037Z,5.70
2024-03-19T07:35:10.143Z,7.30
2024-03-19T07:37:37.922Z,4.30
2024-03-19T07:40:10.952Z,7.60
2024-03-19T07:42:38.559Z,4.60
2024-03-19T07:45:09.348Z,4.80
2024-03-19T07:47:36.872Z,4.80
2024-03-19T07:50:08.726Z,7.20
2024-03-19T07:52:36.278Z,4.50
2024-03-19T07:55:07.180Z,4.00
2024-03-19T07:57:34.628Z,4.90
2024-03-19T08:00:10.933Z,4.50
2024-03-19T08:02:39.965Z,6.50
2024-03-19T08:05:13.288Z,5.80
2024-03-19T08:07:46.686Z,5.60
2024-03-19T08:10:14.846Z,5.20
2024-03-19T08:12:42.309Z,4.50
2024-03-19T08:15:10.537Z,4.70
2024-03-19T08:17:37.954Z,5.00
2024-03-19T08:20:08.303Z,5.20
2024-03-19T08:22:36.578Z,5.00
2024-03-19T08:25:05.692Z,6.00
2024-03-19T08:27:33.148Z,5.70
2024-03-19T08:30:04.173Z,5.20
2024-03-19T08:34:59.599Z,7.10
2024-03-19T08:37:28.062Z,4.70
2024-03-19T08:39:55.545Z,7.00
2024-03-19T08:42:23.050Z,5.40
2024-03-19T08:44:50.452Z,5.50
2024-03-19T08:47:18.411Z,6.90
2024-03-19T08:49:45.817Z,5.70
2024-03-19T08:52:13.223Z,6.10
2024-03-19T08:54:41.150Z,6.40
2024-03-19T08:57:11.964Z,7.30
2024-03-19T08:59:39.377Z,6.40
2024-03-19T09:02:09.008Z,6.10
2024-03-19T09:04:36.409Z,6.40
2024-03-19T09:07:04.604Z,5.70
2024-03-19T09:09:32.099Z,7.40
2024-03-19T09:11:59.494Z,6.50
2024-03-19T09:14:26.931Z,5.90
2024-03-19T09:16:54.343Z,5.60
2024-03-19T09:19:21.750Z,5.70
2024-03-19T09:21:50.424Z,7.40
2024-03-19T09:24:17.872Z,6.60
2024-03-19T09:26:45.357Z,6.00
2024-03-19T09:29:12.812Z,6.10
2024-03-19T09:31:40.255Z,6.20
2024-03-19T09:34:07.667Z,5.90
2024-03-19T09:36:35.081Z,7.00
2024-03-19T09:39:05.382Z,6.40
2024-03-19T09:41:32.878Z,6.70
2024-03-19T09:44:00.295Z,5.40
2024-03-19T09:46:28.175Z,6.60
2024-03-19T09:48:55.711Z,6.60
2024-03-19T09:51:23.133Z,7.50
2024-03-19T09:53:50.683Z,6.40
2024-03-19T09:56:22.334Z,5.90
2024-03-19T10:01:18.952Z,7.90
2024-03-19T10:03:46.932Z,9.60
2024-03-19T10:06:17.704Z,10.40
2024-03-19T10:08:46.069Z,6.60
2024-03-19T10:11:14.569Z,6.70
2024-03-19T10:13:42.137Z,6.40
2024-03-19T10:16:10.060Z,5.50
2024-03-19T10:18:37.564Z,5.50
2024-03-19T10:21:05.632Z,5.50
2024-03-19T10:23:33.100Z,6.70
2024-03-19T10:26:00.539Z,5.70
2024-03-19T10:28:28.037Z,6.70
2024-03-19T10:30:55.521Z,5.20
2024-03-19T10:33:22.944Z,5.00
2024-03-19T10:35:50.349Z,4.80
2024-03-19T10:38:29.143Z,4.80
2024-03-19T10:41:03.381Z,5.70
2024-03-19T10:43:31.033Z,5.40
2024-03-19T10:45:58.508Z,4.60
2024-03-19T10:48:27.115Z,4.90
2024-03-19T10:50:54.677Z,5.30
2024-03-19T10:53:22.143Z,4.30
2024-03-19T10:55:52.743Z,4.10
2024-03-19T10:58:23.524Z,4.60
2024-03-19T11:00:51.842Z,4.10
2024-03-19T11:03:20.571Z,5.50
2024-03-19T11:05:49.004Z,3.70
2024-03-19T11:08:16.729Z,3.40
2024-03-19T11:10:44.743Z,3.90
2024-03-19T11:13:19.056Z,4.00
2024-03-19T11:15:46.524Z,4.00
2024-03-19T11:18:14.007Z,3.50
2024-03-19T11:20:46.250Z,4.90
2024-03-19T11:23:15.828Z,3.70
2024-03-19T11:25:43.671Z,4.10
2024-03-19T11:28:37.468Z,3.70
2024-03-19T11:31:05.523Z,3.90
2024-03-19T11:33:34.071Z,3.60
2024-03-19T11:36:01.481Z,3.50
2024-03-19T11:38:31.024Z,3.80
2024-03-19T11:41:03.630Z,4.60
2024-03-19T11:43:35.926Z,3.70
2024-03-19T11:46:04.398Z,4.70
2024-03-19T11:48:31.911Z,4.40
2024-03-19T11:50:59.407Z,4.00
2024-03-19T11:53:30.152Z,4.70
2024-03-19T11:55:57.825Z,3.60
2024-03-19T11:58:25.516Z,3.60
2024-03-19T12:00:52.985Z,3.60
2024-03-19T12:03:20.430Z,3.10
2024-03-19T12:05:48.831Z,3.90
2024-03-19T12:08:16.781Z,4.10
2024-03-19T12:10:45.835Z,3.00
2024-03-19T12:13:13.695Z,2.50
2024-03-19T12:15:41.283Z,3.00
2024-03-19T12:18:09.328Z,2.60
2024-03-19T12:20:37.966Z,2.20
2024-03-19T12:23:05.402Z,2.70
2024-03-19T12:25:33.348Z,2.10
2024-03-19T12:28:00.767Z,2.70
2024-03-19T12:30:28.291Z,2.10
2024-03-19T12:33:05.213Z,2.40
2024-03-19T12:35:33.964Z,2.40
2024-03-19T12:38:01.749Z,2.20
2024-03-19T12:40:29.580Z,2.30
2024-03-19T12:42:57.624Z,2.10
2024-03-19T12:45:25.368Z,2.50
2024-03-19T12:47:53.042Z,1.90
2024-03-19T12:50:20.543Z,2.40
2024-03-19T12:52:48.063Z,1.90
2024-03-19T12:55:16.436Z,1.90
2024-03-19T12:57:43.964Z,1.90
2024-03-19T13:00:12.524Z,2.40
2024-03-19T13:02:40.194Z,2.10
2024-03-19T13:05:08.981Z,2.10
2024-03-19T13:07:36.830Z,2.20
2024-03-19T13:10:06.584Z,2.80
2024-03-19T13:12:34.086Z,2.10
2024-03-19T13:15:01.594Z,2.40
2024-03-19T13:17:28.998Z,2.60
2024-03-19T13:19:59.350Z,2.40
2024-03-19T13:22:26.923Z,2.70
2024-03-19T13:24:54.490Z,4.30
2024-03-19T13:27:21.973Z,2.40
2024-03-19T13:29:49.971Z,2.50
2024-03-19T13:32:17.833Z,3.50
2024-03-19T13:34:47.356Z,2.70
2024-03-19T13:37:15.094Z,2.00
2024-03-19T13:39:42.507Z,2.30
2024-03-19T13:42:10.036Z,2.90
2024-03-19T13:44:37.570Z,2.00
2024-03-19T13:47:05.138Z,1.80
2024-03-19T13:49:32.572Z,1.50
2024-03-19T13:52:00.247Z,2.10
2024-03-19T13:54:29.283Z,1.90
2024-03-19T13:56:56.829Z,2.20
2024-03-19T13:59:25.208Z,2.20
2024-03-19T14:01:52.937Z,2.10
2024-03-19T14:04:20.503Z,2.10
2024-03-19T14:06:48.372Z,1.70
2024-03-19T14:09:15.905Z,2.20
2024-03-19T14:11:43.444Z,1.70
2024-03-19T14:14:11.410Z,2.40
2024-03-19T14:16:38.864Z,1.80
2024-03-19T14:19:06.318Z,1.70
2024-03-19T14:21:33.909Z,1.50
2024-03-19T14:24:01.428Z,1.40
2024-03-19T14:26:28.892Z,1.80
2024-03-19T14:28:56.653Z,1.50
2024-03-19T14:31:24.157Z,1.60
2024-03-19T14:33:54.127Z,1.30
2024-03-19T14:36:21.666Z,1.40
2024-03-19T14:38:49.146Z,1.50
2024-03-19T14:41:16.650Z,1.20
2024-03-19T14:43:46.543Z,1.50
2024-03-19T14:46:14.693Z,1.70
2024-03-19T14:48:42.781Z,1.50
2024-03-19T14:51:10.422Z,1.40
2024-03-19T14:53:37.873Z,1.50
2024-03-19T14:56:05.649Z,1.50
2024-03-19T14:58:33.099Z,1.60
2024-03-19T15:01:01.128Z,1.80
2024-03-19T15:03:28.567Z,1.90
2024-03-19T15:05:56.443Z,1.60
2024-03-19T15:08:24.486Z,1.50
2024-03-19T15:10:52.237Z,1.80
2024-03-19T15:13:19.701Z,1.70
2024-03-19T15:15:47.753Z,2.80
2024-03-19T15:18:15.697Z,7.70
2024-03-19T15:20:43.110Z,4.70
2024-03-19T15:23:10.568Z,6.40
2024-03-19T15:25:38.032Z,13.60
2024-03-19T15:28:07.500Z,9.40
2024-03-19T15:30:35.209Z,8.20
2024-03-19T15:33:02.811Z,7.70
2024-03-19T15:35:31.775Z,3.80
2024-03-19T15:37:59.988Z,4.00
2024-03-19T15:40:27.447Z,6.40
2024-03-19T15:42:55.050Z,6.70
2024-03-19T15:45:22.498Z,6.20
2024-03-19T15:47:49.984Z,4.10
2024-03-19T15:50:18.017Z,3.00
2024-03-19T15:52:45.533Z,3.40
2024-03-19T15:55:13.015Z,2.60
2024-03-19T15:57:40.891Z,2.50
2024-03-19T16:00:12.164Z,2.50
2024-03-19T16:02:46.172Z,2.80
2024-03-19T16:05:14.423Z,2.90
2024-03-19T16:07:48.212Z,3.30
2024-03-19T16:10:19.015Z,3.50
2024-03-19T16:12:46.823Z,4.50
2024-03-19T16:15:14.341Z,4.00
2024-03-19T16:17:41.759Z,3.50
2024-03-19T16:20:11.197Z,3.00
2024-03-19T16:22:38.629Z,2.70
2024-03-19T16:25:06.212Z,3.60
2024-03-19T16:27:34.251Z,3.60
2024-03-19T16:30:01.697Z,3.40
2024-03-19T16:32:29.112Z,3.20
2024-03-19T16:34:56.568Z,3.10
2024-03-19T16:37:27.363Z,2.80
2024-03-19T16:39:57.296Z,2.90
2024-03-19T16:42:25.088Z,3.60
2024-03-19T16:44:53.252Z,3.40
2024-03-19T16:47:21.753Z,3.90
2024-03-19T16:49:49.213Z,3.80
2024-03-19T16:52:16.666Z,4.70
2024-03-19T16:54:44.069Z,4.30
2024-03-19T16:57:11.629Z,5.50
2024-03-19T16:59:39.081Z,5.90
2024-03-19T17:02:07.919Z,6.20
2024-03-19T17:04:37.462Z,20.90
2024-03-19T17:07:05.016Z,15.00
2024-03-19T17:09:32.532Z,10.10
2024-03-19T17:12:00.047Z,7.20
2024-03-19T17:14:27.487Z,7.90
2024-03-19T17:16:54.974Z,6.30
2024-03-19T17:19:23.600Z,6.30
2024-03-19T17:21:52.220Z,5.10
2024-03-19T17:24:19.724Z,5.20
2024-03-19T17:26:47.175Z,7.00
2024-03-19T17:29:15.289Z,5.60
2024-03-19T17:31:42.693Z,5.70
2024-03-19T17:34:10.249Z,6.90
2024-03-19T17:36:38.198Z,6.70
2024-03-19T17:39:06.444Z,6.20
2024-03-19T17:41:33.995Z,5.40
2024-03-19T17:44:01.752Z,6.70
2024-03-19T17:46:29.268Z,6.50
2024-03-19T17:48:57.170Z,6.70
2024-03-19T17:51:24.597Z,6.40
2024-03-19T17:53:52.095Z,5.80
2024-03-19T17:56:19.522Z,6.70
2024-03-19T17:58:47.032Z,8.60
2024-03-19T18:01:14.797Z,6.40
2024-03-19T18:03:43.336Z,6.20
2024-03-19T18:06:12.471Z,5.50
2024-03-19T18:08:40.476Z,4.30
2024-03-19T18:11:08.884Z,4.70
2024-03-19T18:13:36.451Z,4.90
2024-03-19T18:16:04.670Z,5.00
2024-03-19T18:18:33.179Z,4.60
2024-03-19T18:21:00.828Z,9.00
2024-03-19T18:23:28.242Z,8.60
2024-03-19T18:25:55.690Z,9.30
2024-03-19T18:28:24.557Z,7.10
2024-03-19T18:30:52.100Z,5.30
2024-03-19T18:33:19.625Z,5.40
2024-03-19T18:35:47.073Z,7.60
2024-03-19T18:38:14.498Z,6.70
2024-03-19T18:40:43.585Z,4.40
2024-03-19T18:43:11.121Z,4.20
2024-03-19T18:45:38.691Z,4.30
2024-03-19T18:48:08.921Z,4.10
2024-03-19T18:50:37.161Z,5.90
2024-03-19T18:53:04.949Z,4.70
2024-03-19T18:55:32.599Z,4.80
2024-03-19T18:58:00.049Z,4.80
2024-03-19T19:00:27.477Z,4.30
2024-03-19T19:02:55.057Z,4.70
2024-03-19T19:05:22.534Z,4.00
2024-03-19T19:07:50.051Z,4.60
2024-03-19T19:10:17.627Z,4.80
2024-03-19T19:12:45.591Z,4.80
2024-03-19T19:15:13.028Z,4.80
2024-03-19T19:17:40.581Z,5.30
2024-03-19T19:20:08.499Z,5.20
2024-03-19T19:22:36.211Z,4.30
2024-03-19T19:25:04.035Z,6.20
2024-03-19T19:27:31.819Z,5.40
2024-03-19T19:29:59.667Z,5.80
2024-03-19T19:32:27.114Z,5.80
2024-03-19T19:34:54.628Z,6.00
2024-03-19T19:37:22.776Z,5.20
2024-03-19T19:39:50.212Z,5.50
2024-03-19T19:42:17.846Z,5.00
2024-03-19T19:44:45.356Z,4.90
2024-03-19T19:47:12.905Z,5.80
2024-03-19T19:49:40.394Z,8.40
2024-03-19T19:52:07.893Z,6.90
2024-03-19T19:54:35.377Z,6.20
2024-03-19T19:57:02.839Z,4.50
2024-03-19T19:59:31.817Z,4.40
2024-03-19T20:01:59.234Z,4.70
2024-03-19T20:04:26.655Z,6.20
2024-03-19T20:06:54.194Z,4.40
2024-03-19T20:09:21.678Z,4.60
2024-03-19T20:11:49.131Z,4.80
2024-03-19T20:14:16.900Z,4.70
2024-03-19T20:16:44.325Z,4.60
2024-03-19T20:19:12.272Z,4.60
2024-03-19T20:21:39.884Z,4.50
2024-03-19T20:24:07.488Z,4.80
2024-03-19T20:26:37.520Z,5.70
2024-03-19T20:29:04.946Z,5.30
2024-03-19T20:31:32.369Z,5.30
2024-03-19T20:33:59.812Z,5.10
2024-03-19T20:36:30.211Z,5.90
2024-03-19T20:38:59.915Z,5.40
2024-03-19T20:41:28.262Z,6.50
2024-03-19T20:43:55.680Z,5.90
2024-03-19T20:46:23.174Z,5.70
2024-03-19T20:48:50.585Z,6.00
2024-03-19T20:51:19.926Z,7.70
2024-03-19T20:53:47.551Z,6.00
2024-03-19T20:56:14.961Z,6.90
2024-03-19T20:58:42.413Z,8.50
2024-03-19T21:01:09.960Z,7.70
2024-03-19T21:03:37.376Z,7.10
2024-03-19T21:06:05.907Z,7.00
2024-03-19T21:08:34.392Z,7.30
2024-03-19T21:11:01.881Z,6.80
2024-03-19T21:13:29.925Z,6.90
2024-03-19T21:15:57.386Z,7.00
2024-03-19T21:18:24.813Z,7.50
2024-03-19T21:20:52.258Z,7.50
2024-03-19T21:23:19.723Z,7.10
2024-03-19T21:25:47.216Z,7.80
2024-03-19T21:28:14.824Z,7.80
2024-03-19T21:30:42.376Z,7.80
2024-03-19T21:33:09.819Z,8.30
2024-03-19T21:35:37.281Z,8.80
2024-03-19T21:38:04.854Z,9.80
2024-03-19T21:40:32.261Z,8.80
2024-03-19T21:42:59.674Z,7.70
2024-03-19T21:45:27.080Z,8.90
2024-03-19T21:47:54.595Z,8.60
2024-03-19T21:50:22.732Z,9.10
2024-03-19T21:52:50.227Z,7.00
2024-03-19T21:55:17.755Z,6.60
2024-03-19T21:57:45.266Z,6.20
2024-03-19T22:00:16.153Z,5.70
2024-03-19T22:02:43.680Z,5.10
2024-03-19T22:05:11.170Z,5.20
2024-03-19T22:07:38.590Z,4.90
2024-03-19T22:10:06.618Z,4.80
2024-03-19T22:12:36.021Z,4.90
2024-03-19T22:15:03.785Z,3.80
2024-03-19T22:17:31.317Z,4.10
2024-03-19T22:19:58.758Z,3.50
2024-03-19T22:22:26.121Z,5.10
2024-03-19T22:24:54.172Z,4.00
2024-03-19T22:27:22.039Z,4.30
2024-03-19T22:29:49.491Z,5.60
2024-03-19T22:32:17.057Z,6.20
2024-03-19T22:34:44.492Z,6.80
2024-03-19T22:37:11.920Z,6.80
2024-03-19T22:39:41.525Z,7.20
2024-03-19T22:42:09.436Z,7.70
2024-03-19T22:44:37.545Z,7.70
2024-03-19T22:47:05.116Z,8.20
2024-03-19T22:49:32.781Z,7.60
2024-03-19T22:52:01.060Z,9.80
2024-03-19T22:54:28.447Z,8.50
2024-03-19T22:56:55.904Z,9.50
2024-03-19T22:59:23.290Z,8.10
2024-03-19T23:01:50.781Z,8.80
2024-03-19T23:04:18.142Z,7.30
2024-03-19T23:06:46.055Z,7.10
2024-03-19T23:09:14.939Z,6.90
2024-03-19T23:11:42.391Z,8.10
2024-03-19T23:14:10.349Z,8.30
2024-03-19T23:16:37.751Z,8.90
2024-03-19T23:19:05.245Z,10.90
2024-03-19T23:21:32.660Z,10.30
2024-03-19T23:24:00.066Z,9.90
2024-03-19T23:26:27.731Z,7.00
2024-03-19T23:28:55.208Z,5.90
2024-03-19T23:31:22.703Z,4.80
2024-03-19T23:33:50.165Z,5.50
2024-03-19T23:36:17.571Z,6.00
2024-03-19T23:38:45.212Z,5.40
2024-03-19T23:41:13.038Z,6.40
2024-03-19T23:43:40.409Z,5.60
2024-03-19T23:46:07.791Z,6.60
2024-03-19T23:48:35.207Z,6.60
2024-03-19T23:51:03.867Z,7.10
2024-03-19T23:53:31.260Z,6.70
2024-03-19T23:55:58.762Z,6.90
2024-03-19T23:58:26.171Z,6.70
